sensor_id;sensor_type;location;lat;lon;timestamp;temperature;humidity
22852;DHT22;11592;45.460;9.240;2023-02-15T00:01:43;7.20;99.90
22852;DHT22;11592;45.460;9.240;2023-02-15T00:04:13;7.10;99.90
22852;DHT22;11592;45.460;9.240;2023-02-15T00:06:40;7.00;99.90
22852;DHT22;11592;45.460;9.240;2023-02-15T00:09:09;7.00;99.90
22852;DHT22;11592;45.460;9.240;2023-02-15T00:11:36;6.90;99.90
22852;DHT22;11592;45.460;9.240;2023-02-15T00:14:19;6.90;99.90
22852;DHT22;11592;45.460;9.240;2023-02-15T00:16:47;6.80;99.90
22852;DHT22;11592;45.460;9.240;2023-02-15T00:19:16;6.80;99.90
22852;DHT22;11592;45.460;9.240;2023-02-15T00:21:43;6.80;99.90
22852;DHT22;11592;45.460;9.240;2023-02-15T00:24:13;6.70;99.90
22852;DHT22;11592;45.460;9.240;2023-02-15T00:26:41;6.70;99.90
22852;DHT22;11592;45.460;9.240;2023-02-15T00:29:09;6.70;99.90
22852;DHT22;11592;45.460;9.240;2023-02-15T00:31:37;6.60;99.90
22852;DHT22;11592;45.460;9.240;2023-02-15T00:34:12;6.60;99.90
22852;DHT22;11592;45.460;9.240;2023-02-15T00:36:39;6.60;99.90
22852;DHT22;11592;45.460;9.240;2023-02-15T00:39:06;6.50;99.90
22852;DHT22;11592;45.460;9.240;2023-02-15T00:41:34;6.50;99.90
22852;DHT22;11592;45.460;9.240;2023-02-15T00:44:01;6.50;99.90
22852;DHT22;11592;45.460;9.240;2023-02-15T00:46:28;6.50;99.90
22852;DHT22;11592;45.460;9.240;2023-02-15T00:48:54;6.40;99.90
22852;DHT22;11592;45.460;9.240;2023-02-15T00:51:21;6.40;99.90
22852;DHT22;11592;45.460;9.240;2023-02-15T00:53:49;6.40;99.90
22852;DHT22;11592;45.460;9.240;2023-02-15T00:56:16;6.40;99.90
22852;DHT22;11592;45.460;9.240;2023-02-15T00:58:42;6.40;99.90
22852;DHT22;11592;45.460;9.240;2023-02-15T01:01:15;6.40;99.90
22852;DHT22;11592;45.460;9.240;2023-02-15T01:03:42;6.40;99.90
22852;DHT22;11592;45.460;9.240;2023-02-15T01:06:29;6.30;99.90
22852;DHT22;11592;45.460;9.240;2023-02-15T01:09:13;6.30;99.90
22852;DHT22;11592;45.460;9.240;2023-02-15T01:11:40;6.30;99.90
22852;DHT22;11592;45.460;9.240;2023-02-15T01:14:07;6.20;99.90
22852;DHT22;11592;45.460;9.240;2023-02-15T01:16:33;6.20;99.90
22852;DHT22;11592;45.460;9.240;2023-02-15T01:19:00;6.10;99.90
22852;DHT22;11592;45.460;9.240;2023-02-15T01:21:29;6.20;99.90
22852;DHT22;11592;45.460;9.240;2023-02-15T01:23:55;6.20;99.90
22852;DHT22;11592;45.460;9.240;2023-02-15T01:26:22;6.10;99.90
22852;DHT22;11592;45.460;9.240;2023-02-15T01:28:49;6.10;99.90
22852;DHT22;11592;45.460;9.240;2023-02-15T01:31:19;6.10;99.90
22852;DHT22;11592;45.460;9.240;2023-02-15T01:33:47;6.10;99.90
22852;DHT22;11592;45.460;9.240;2023-02-15T01:36:14;6.00;99.90
22852;DHT22;11592;45.460;9.240;2023-02-15T01:38:41;6.10;99.90
22852;DHT22;11592;45.460;9.240;2023-02-15T01:41:08;6.00;99.90
22852;DHT22;11592;45.460;9.240;2023-02-15T01:44:00;6.10;99.90
22852;DHT22;11592;45.460;9.240;2023-02-15T01:46:35;6.00;99.90
22852;DHT22;11592;45.460;9.240;2023-02-15T01:49:16;6.00;99.90
22852;DHT22;11592;45.460;9.240;2023-02-15T01:51:46;6.00;99.90
22852;DHT22;11592;45.460;9.240;2023-02-15T01:54:21;6.10;99.90
22852;DHT22;11592;45.460;9.240;2023-02-15T01:56:52;6.00;99.90
22852;DHT22;11592;45.460;9.240;2023-02-15T01:59:23;6.00;99.90
22852;DHT22;11592;45.460;9.240;2023-02-15T02:01:52;6.10;99.90
22852;DHT22;11592;45.460;9.240;2023-02-15T02:04:31;6.00;99.90
22852;DHT22;11592;45.460;9.240;2023-02-15T02:06:59;6.00;99.90
22852;DHT22;11592;45.460;9.240;2023-02-15T02:09:26;5.90;99.90
22852;DHT22;11592;45.460;9.240;2023-02-15T02:11:53;5.90;99.90
22852;DHT22;11592;45.460;9.240;2023-02-15T02:14:21;5.80;99.90
22852;DHT22;11592;45.460;9.240;2023-02-15T02:16:57;5.90;99.90
22852;DHT22;11592;45.460;9.240;2023-02-15T02:41:56;5.60;99.90
22852;DHT22;11592;45.460;9.240;2023-02-15T02:44:27;5.60;99.90
22852;DHT22;11592;45.460;9.240;2023-02-15T02:47:06;5.50;99.90
22852;DHT22;11592;45.460;9.240;2023-02-15T02:49:37;5.40;99.90
22852;DHT22;11592;45.460;9.240;2023-02-15T02:54:53;5.40;99.90
22852;DHT22;11592;45.460;9.240;2023-02-15T02:57:21;5.40;99.90
22852;DHT22;11592;45.460;9.240;2023-02-15T02:59:50;5.40;99.90
22852;DHT22;11592;45.460;9.240;2023-02-15T03:02:25;5.30;99.90
22852;DHT22;11592;45.460;9.240;2023-02-15T03:05:00;5.40;99.90
22852;DHT22;11592;45.460;9.240;2023-02-15T03:07:31;5.40;99.90
22852;DHT22;11592;45.460;9.240;2023-02-15T03:10:00;5.30;99.90
22852;DHT22;11592;45.460;9.240;2023-02-15T03:15:19;5.30;99.90
22852;DHT22;11592;45.460;9.240;2023-02-15T03:17:54;5.20;99.90
22852;DHT22;11592;45.460;9.240;2023-02-15T03:20:28;5.30;99.90
22852;DHT22;11592;45.460;9.240;2023-02-15T03:23:06;5.20;99.90
22852;DHT22;11592;45.460;9.240;2023-02-15T03:25:40;5.20;99.90
22852;DHT22;11592;45.460;9.240;2023-02-15T03:28:23;5.20;99.90
22852;DHT22;11592;45.460;9.240;2023-02-15T03:30:53;5.30;99.90
22852;DHT22;11592;45.460;9.240;2023-02-15T03:33:23;5.20;99.90
22852;DHT22;11592;45.460;9.240;2023-02-15T03:36:04;5.20;99.90
22852;DHT22;11592;45.460;9.240;2023-02-15T03:38:50;5.10;99.90
22852;DHT22;11592;45.460;9.240;2023-02-15T03:41:19;5.10;99.90
22852;DHT22;11592;45.460;9.240;2023-02-15T03:44:04;5.10;99.90
22852;DHT22;11592;45.460;9.240;2023-02-15T03:52:03;5.30;99.90
22852;DHT22;11592;45.460;9.240;2023-02-15T03:54:33;5.20;99.90
22852;DHT22;11592;45.460;9.240;2023-02-15T04:00:17;5.10;99.90
22852;DHT22;11592;45.460;9.240;2023-02-15T04:03:19;5.10;99.90
22852;DHT22;11592;45.460;9.240;2023-02-15T04:05:47;5.00;99.90
22852;DHT22;11592;45.460;9.240;2023-02-15T04:08:14;5.00;99.90
22852;DHT22;11592;45.460;9.240;2023-02-15T04:10:41;5.00;99.90
22852;DHT22;11592;45.460;9.240;2023-02-15T04:13:22;5.00;99.90
22852;DHT22;11592;45.460;9.240;2023-02-15T04:15:49;5.00;99.90
22852;DHT22;11592;45.460;9.240;2023-02-15T04:18:37;5.00;99.90
22852;DHT22;11592;45.460;9.240;2023-02-15T04:21:25;5.00;99.90
22852;DHT22;11592;45.460;9.240;2023-02-15T04:24:11;5.20;99.90
22852;DHT22;11592;45.460;9.240;2023-02-15T04:26:57;5.20;99.90
22852;DHT22;11592;45.460;9.240;2023-02-15T04:29:25;5.20;99.90
22852;DHT22;11592;45.460;9.240;2023-02-15T04:31:53;5.20;99.90
22852;DHT22;11592;45.460;9.240;2023-02-15T04:34:21;5.30;99.90
22852;DHT22;11592;45.460;9.240;2023-02-15T04:36:48;5.40;99.90
22852;DHT22;11592;45.460;9.240;2023-02-15T04:39:17;5.20;99.90
22852;DHT22;11592;45.460;9.240;2023-02-15T04:41:45;5.10;99.90
22852;DHT22;11592;45.460;9.240;2023-02-15T04:44:12;5.00;99.90
22852;DHT22;11592;45.460;9.240;2023-02-15T04:46:38;4.90;99.90
22852;DHT22;11592;45.460;9.240;2023-02-15T04:49:05;4.90;99.90
22852;DHT22;11592;45.460;9.240;2023-02-15T04:51:32;4.90;99.90
22852;DHT22;11592;45.460;9.240;2023-02-15T04:53:59;5.00;99.90
22852;DHT22;11592;45.460;9.240;2023-02-15T04:56:25;4.90;99.90
22852;DHT22;11592;45.460;9.240;2023-02-15T04:58:52;4.90;99.90
22852;DHT22;11592;45.460;9.240;2023-02-15T05:01:19;4.80;99.90
22852;DHT22;11592;45.460;9.240;2023-02-15T05:03:46;4.80;99.90
22852;DHT22;11592;45.460;9.240;2023-02-15T05:06:13;4.80;99.90
22852;DHT22;11592;45.460;9.240;2023-02-15T05:10:39;4.70;99.90
22852;DHT22;11592;45.460;9.240;2023-02-15T05:13:06;4.70;99.90
22852;DHT22;11592;45.460;9.240;2023-02-15T05:16:51;4.70;99.90
22852;DHT22;11592;45.460;9.240;2023-02-15T05:19:17;4.70;99.90
22852;DHT22;11592;45.460;9.240;2023-02-15T05:21:44;4.70;99.90
22852;DHT22;11592;45.460;9.240;2023-02-15T05:24:12;4.70;99.90
22852;DHT22;11592;45.460;9.240;2023-02-15T05:26:57;4.70;99.90
22852;DHT22;11592;45.460;9.240;2023-02-15T05:29:43;4.60;99.90
22852;DHT22;11592;45.460;9.240;2023-02-15T05:32:13;4.60;99.90
22852;DHT22;11592;45.460;9.240;2023-02-15T05:34:40;4.70;99.90
22852;DHT22;11592;45.460;9.240;2023-02-15T05:37:06;4.70;99.90
22852;DHT22;11592;45.460;9.240;2023-02-15T05:39:34;4.80;99.90
22852;DHT22;11592;45.460;9.240;2023-02-15T05:42:01;4.70;99.90
22852;DHT22;11592;45.460;9.240;2023-02-15T05:44:27;4.70;99.90
22852;DHT22;11592;45.460;9.240;2023-02-15T05:46:54;4.70;99.90
22852;DHT22;11592;45.460;9.240;2023-02-15T05:49:21;4.70;99.90
22852;DHT22;11592;45.460;9.240;2023-02-15T05:51:49;4.70;99.90
22852;DHT22;11592;45.460;9.240;2023-02-15T05:54:15;4.70;99.90
22852;DHT22;11592;45.460;9.240;2023-02-15T05:56:42;4.80;99.90
22852;DHT22;11592;45.460;9.240;2023-02-15T05:59:09;4.80;99.90
22852;DHT22;11592;45.460;9.240;2023-02-15T06:01:36;4.80;99.90
22852;DHT22;11592;45.460;9.240;2023-02-15T06:04:02;4.70;99.90
22852;DHT22;11592;45.460;9.240;2023-02-15T06:06:29;4.70;99.90
22852;DHT22;11592;45.460;9.240;2023-02-15T06:08:56;4.60;99.90
22852;DHT22;11592;45.460;9.240;2023-02-15T06:11:23;4.70;99.90
22852;DHT22;11592;45.460;9.240;2023-02-15T06:13:49;4.70;99.90
22852;DHT22;11592;45.460;9.240;2023-02-15T06:16:16;4.60;99.90
22852;DHT22;11592;45.460;9.240;2023-02-15T06:18:43;4.60;99.90
22852;DHT22;11592;45.460;9.240;2023-02-15T06:21:10;4.60;99.90
22852;DHT22;11592;45.460;9.240;2023-02-15T06:23:37;4.60;99.90
22852;DHT22;11592;45.460;9.240;2023-02-15T06:26:04;4.60;99.90
22852;DHT22;11592;45.460;9.240;2023-02-15T06:28:31;4.60;99.90
22852;DHT22;11592;45.460;9.240;2023-02-15T06:30:58;4.70;99.90
22852;DHT22;11592;45.460;9.240;2023-02-15T06:33:25;4.90;99.90
22852;DHT22;11592;45.460;9.240;2023-02-15T06:35:52;4.90;99.90
22852;DHT22;11592;45.460;9.240;2023-02-15T06:38:19;4.80;99.90
22852;DHT22;11592;45.460;9.240;2023-02-15T06:40:46;4.80;99.90
22852;DHT22;11592;45.460;9.240;2023-02-15T06:43:42;4.70;99.90
22852;DHT22;11592;45.460;9.240;2023-02-15T06:46:09;4.80;99.90
22852;DHT22;11592;45.460;9.240;2023-02-15T06:48:36;4.80;99.90
22852;DHT22;11592;45.460;9.240;2023-02-15T06:51:03;4.80;99.90
22852;DHT22;11592;45.460;9.240;2023-02-15T06:53:30;4.80;99.90
22852;DHT22;11592;45.460;9.240;2023-02-15T06:56:05;5.00;99.90
22852;DHT22;11592;45.460;9.240;2023-02-15T06:58:33;5.20;99.90
22852;DHT22;11592;45.460;9.240;2023-02-15T07:01:00;5.30;99.90
22852;DHT22;11592;45.460;9.240;2023-02-15T07:03:26;5.40;99.90
22852;DHT22;11592;45.460;9.240;2023-02-15T07:06:00;5.60;99.90
22852;DHT22;11592;45.460;9.240;2023-02-15T07:08:28;5.50;99.90
22852;DHT22;11592;45.460;9.240;2023-02-15T07:10:56;5.70;99.90
22852;DHT22;11592;45.460;9.240;2023-02-15T07:13:46;5.70;99.90
22852;DHT22;11592;45.460;9.240;2023-02-15T07:16:13;5.80;99.90
22852;DHT22;11592;45.460;9.240;2023-02-15T07:18:40;5.90;99.90
22852;DHT22;11592;45.460;9.240;2023-02-15T07:21:07;5.90;99.90
22852;DHT22;11592;45.460;9.240;2023-02-15T07:23:38;6.00;99.90
22852;DHT22;11592;45.460;9.240;2023-02-15T07:26:06;6.00;99.90
22852;DHT22;11592;45.460;9.240;2023-02-15T07:28:34;6.10;99.90
22852;DHT22;11592;45.460;9.240;2023-02-15T07:31:02;6.10;99.90
22852;DHT22;11592;45.460;9.240;2023-02-15T07:33:33;6.20;99.90
22852;DHT22;11592;45.460;9.240;2023-02-15T07:36:02;6.30;99.90
22852;DHT22;11592;45.460;9.240;2023-02-15T07:38:34;6.40;99.90
22852;DHT22;11592;45.460;9.240;2023-02-15T07:41:03;6.50;99.90
22852;DHT22;11592;45.460;9.240;2023-02-15T07:43:33;6.60;99.90
22852;DHT22;11592;45.460;9.240;2023-02-15T07:46:02;6.70;99.90
22852;DHT22;11592;45.460;9.240;2023-02-15T07:48:29;6.80;99.90
22852;DHT22;11592;45.460;9.240;2023-02-15T07:51:00;6.90;99.90
22852;DHT22;11592;45.460;9.240;2023-02-15T07:53:27;6.90;99.90
22852;DHT22;11592;45.460;9.240;2023-02-15T07:55:54;7.00;99.90
22852;DHT22;11592;45.460;9.240;2023-02-15T07:58:21;7.10;99.90
22852;DHT22;11592;45.460;9.240;2023-02-15T08:01:08;7.20;99.90
22852;DHT22;11592;45.460;9.240;2023-02-15T08:03:35;7.30;99.90
22852;DHT22;11592;45.460;9.240;2023-02-15T08:06:01;7.30;99.90
22852;DHT22;11592;45.460;9.240;2023-02-15T08:08:29;7.40;99.90
22852;DHT22;11592;45.460;9.240;2023-02-15T08:11:03;7.50;99.90
22852;DHT22;11592;45.460;9.240;2023-02-15T08:13:50;7.50;99.90
22852;DHT22;11592;45.460;9.240;2023-02-15T08:16:43;7.70;99.90
22852;DHT22;11592;45.460;9.240;2023-02-15T08:19:22;7.70;99.90
22852;DHT22;11592;45.460;9.240;2023-02-15T08:21:54;7.80;99.90
22852;DHT22;11592;45.460;9.240;2023-02-15T08:24:25;7.90;99.90
22852;DHT22;11592;45.460;9.240;2023-02-15T08:26:52;8.00;99.90
22852;DHT22;11592;45.460;9.240;2023-02-15T08:29:25;8.10;99.90
22852;DHT22;11592;45.460;9.240;2023-02-15T08:31:57;8.10;99.90
22852;DHT22;11592;45.460;9.240;2023-02-15T08:34:33;8.20;99.90
22852;DHT22;11592;45.460;9.240;2023-02-15T08:37:02;8.30;99.90
22852;DHT22;11592;45.460;9.240;2023-02-15T08:39:29;8.40;99.90
22852;DHT22;11592;45.460;9.240;2023-02-15T08:41:56;8.40;99.90
22852;DHT22;11592;45.460;9.240;2023-02-15T08:44:23;8.50;99.90
22852;DHT22;11592;45.460;9.240;2023-02-15T08:46:50;8.60;99.90
22852;DHT22;11592;45.460;9.240;2023-02-15T08:49:21;8.70;99.90
22852;DHT22;11592;45.460;9.240;2023-02-15T08:51:49;8.70;99.90
22852;DHT22;11592;45.460;9.240;2023-02-15T08:54:19;8.80;99.90
22852;DHT22;11592;45.460;9.240;2023-02-15T08:56:47;8.80;99.90
22852;DHT22;11592;45.460;9.240;2023-02-15T08:59:17;8.90;99.90
22852;DHT22;11592;45.460;9.240;2023-02-15T09:01:47;9.00;99.90
22852;DHT22;11592;45.460;9.240;2023-02-15T09:04:14;9.00;99.90
22852;DHT22;11592;45.460;9.240;2023-02-15T09:06:45;9.10;99.90
22852;DHT22;11592;45.460;9.240;2023-02-15T09:09:15;9.20;99.90
22852;DHT22;11592;45.460;9.240;2023-02-15T09:11:44;9.30;99.90
22852;DHT22;11592;45.460;9.240;2023-02-15T09:14:14;9.30;99.90
22852;DHT22;11592;45.460;9.240;2023-02-15T09:16:42;9.40;99.90
22852;DHT22;11592;45.460;9.240;2023-02-15T09:19:12;9.40;99.90
22852;DHT22;11592;45.460;9.240;2023-02-15T09:21:39;9.60;99.90
22852;DHT22;11592;45.460;9.240;2023-02-15T09:24:09;9.60;99.90
22852;DHT22;11592;45.460;9.240;2023-02-15T09:26:39;9.70;99.90
22852;DHT22;11592;45.460;9.240;2023-02-15T09:29:10;9.80;99.90
22852;DHT22;11592;45.460;9.240;2023-02-15T09:31:43;9.90;99.90
22852;DHT22;11592;45.460;9.240;2023-02-15T09:34:13;10.00;99.90
22852;DHT22;11592;45.460;9.240;2023-02-15T09:36:41;10.10;99.90
22852;DHT22;11592;45.460;9.240;2023-02-15T09:39:11;10.20;99.90
22852;DHT22;11592;45.460;9.240;2023-02-15T09:44:53;10.20;99.90
22852;DHT22;11592;45.460;9.240;2023-02-15T09:50:25;10.30;99.90
22852;DHT22;11592;45.460;9.240;2023-02-15T09:53:03;10.40;99.90
22852;DHT22;11592;45.460;9.240;2023-02-15T09:55:51;10.30;99.90
22852;DHT22;11592;45.460;9.240;2023-02-15T10:09:57;10.90;99.90
22852;DHT22;11592;45.460;9.240;2023-02-15T10:15:40;11.10;99.90
22852;DHT22;11592;45.460;9.240;2023-02-15T10:26:20;11.60;99.90
22852;DHT22;11592;45.460;9.240;2023-02-15T10:28:57;11.60;99.90
22852;DHT22;11592;45.460;9.240;2023-02-15T10:31:34;11.70;99.90
22852;DHT22;11592;45.460;9.240;2023-02-15T10:34:37;12.00;99.90
22852;DHT22;11592;45.460;9.240;2023-02-15T10:43:20;12.50;99.90
22852;DHT22;11592;45.460;9.240;2023-02-15T10:51:47;12.70;99.90
22852;DHT22;11592;45.460;9.240;2023-02-15T10:54:28;12.70;99.90
22852;DHT22;11592;45.460;9.240;2023-02-15T10:57:06;12.80;99.90
22852;DHT22;11592;45.460;9.240;2023-02-15T11:02:42;13.20;99.90
22852;DHT22;11592;45.460;9.240;2023-02-15T11:07:59;13.60;99.90
22852;DHT22;11592;45.460;9.240;2023-02-15T11:10:54;13.90;99.90
22852;DHT22;11592;45.460;9.240;2023-02-15T11:13:25;14.10;99.90
22852;DHT22;11592;45.460;9.240;2023-02-15T11:16:04;14.30;99.90
22852;DHT22;11592;45.460;9.240;2023-02-15T11:19:06;14.30;99.90
22852;DHT22;11592;45.460;9.240;2023-02-15T11:21:42;14.30;99.90
22852;DHT22;11592;45.460;9.240;2023-02-15T11:24:10;14.70;99.90
22852;DHT22;11592;45.460;9.240;2023-02-15T11:27:24;15.70;99.90
22852;DHT22;11592;45.460;9.240;2023-02-15T11:29:36;17.20;98.70
22852;DHT22;11592;45.460;9.240;2023-02-15T11:40:03;28.20;61.00
22852;DHT22;11592;45.460;9.240;2023-02-15T11:42:39;28.40;56.20
22852;DHT22;11592;45.460;9.240;2023-02-15T11:47:43;29.90;49.00
22852;DHT22;11592;45.460;9.240;2023-02-15T11:50:15;29.80;48.30
22852;DHT22;11592;45.460;9.240;2023-02-15T11:52:44;29.50;46.60
22852;DHT22;11592;45.460;9.240;2023-02-15T11:55:14;29.10;46.40
22852;DHT22;11592;45.460;9.240;2023-02-15T12:00:46;30.50;44.20
22852;DHT22;11592;45.460;9.240;2023-02-15T12:03:21;30.70;43.80
22852;DHT22;11592;45.460;9.240;2023-02-15T12:05:56;30.70;42.90
22852;DHT22;11592;45.460;9.240;2023-02-15T12:08:23;30.20;42.30
22852;DHT22;11592;45.460;9.240;2023-02-15T12:11:09;30.30;44.10
22852;DHT22;11592;45.460;9.240;2023-02-15T12:16:21;33.60;38.60
22852;DHT22;11592;45.460;9.240;2023-02-15T12:18:48;33.90;37.80
22852;DHT22;11592;45.460;9.240;2023-02-15T12:21:27;33.20;38.20
22852;DHT22;11592;45.460;9.240;2023-02-15T12:27:15;34.10;35.60
22852;DHT22;11592;45.460;9.240;2023-02-15T12:29:47;33.50;35.50
22852;DHT22;11592;45.460;9.240;2023-02-15T12:32:27;32.90;35.90
22852;DHT22;11592;45.460;9.240;2023-02-15T12:35:18;32.50;35.90
22852;DHT22;11592;45.460;9.240;2023-02-15T12:37:58;33.40;35.60
22852;DHT22;11592;45.460;9.240;2023-02-15T12:40:29;32.70;35.70
22852;DHT22;11592;45.460;9.240;2023-02-15T12:42:57;32.00;36.00
22852;DHT22;11592;45.460;9.240;2023-02-15T12:45:30;32.00;37.10
22852;DHT22;11592;45.460;9.240;2023-02-15T12:48:14;32.20;38.70
22852;DHT22;11592;45.460;9.240;2023-02-15T12:50:49;31.90;35.80
22852;DHT22;11592;45.460;9.240;2023-02-15T12:53:29;31.70;35.90
22852;DHT22;11592;45.460;9.240;2023-02-15T12:55:58;32.10;36.80
22852;DHT22;11592;45.460;9.240;2023-02-15T12:58:30;33.30;35.10
22852;DHT22;11592;45.460;9.240;2023-02-15T13:03:55;34.70;33.70
22852;DHT22;11592;45.460;9.240;2023-02-15T13:06:23;34.50;33.30
22852;DHT22;11592;45.460;9.240;2023-02-15T13:11:45;32.30;34.30
22852;DHT22;11592;45.460;9.240;2023-02-15T13:14:20;31.90;35.50
22852;DHT22;11592;45.460;9.240;2023-02-15T13:16:51;32.60;36.10
22852;DHT22;11592;45.460;9.240;2023-02-15T13:19:31;32.00;35.20
22852;DHT22;11592;45.460;9.240;2023-02-15T13:22:02;31.90;35.80
22852;DHT22;11592;45.460;9.240;2023-02-15T13:24:41;31.90;36.50
22852;DHT22;11592;45.460;9.240;2023-02-15T13:27:16;31.90;35.20
22852;DHT22;11592;45.460;9.240;2023-02-15T13:29:46;31.80;36.00
22852;DHT22;11592;45.460;9.240;2023-02-15T13:32:25;32.90;35.00
22852;DHT22;11592;45.460;9.240;2023-02-15T13:34:57;32.40;35.00
22852;DHT22;11592;45.460;9.240;2023-02-15T13:40:28;32.20;36.50
22852;DHT22;11592;45.460;9.240;2023-02-15T13:57:41;31.50;35.70
22852;DHT22;11592;45.460;9.240;2023-02-15T14:08:32;32.00;34.60
22852;DHT22;11592;45.460;9.240;2023-02-15T14:11:13;31.70;35.60
22852;DHT22;11592;45.460;9.240;2023-02-15T14:20:03;30.80;35.00
22852;DHT22;11592;45.460;9.240;2023-02-15T14:22:44;31.20;34.60
22852;DHT22;11592;45.460;9.240;2023-02-15T14:30:37;31.60;34.20
22852;DHT22;11592;45.460;9.240;2023-02-15T14:33:08;31.10;34.30
22852;DHT22;11592;45.460;9.240;2023-02-15T14:35:39;31.20;34.00
22852;DHT22;11592;45.460;9.240;2023-02-15T14:46:53;25.90;38.30
22852;DHT22;11592;45.460;9.240;2023-02-15T14:49:27;24.20;40.50
22852;DHT22;11592;45.460;9.240;2023-02-15T14:52:04;23.00;42.50
22852;DHT22;11592;45.460;9.240;2023-02-15T14:59:53;21.00;46.40
22852;DHT22;11592;45.460;9.240;2023-02-15T15:02:39;20.60;47.20
22852;DHT22;11592;45.460;9.240;2023-02-15T15:05:12;20.40;47.60
22852;DHT22;11592;45.460;9.240;2023-02-15T15:07:52;20.30;47.70
22852;DHT22;11592;45.460;9.240;2023-02-15T15:12:48;20.10;48.00
22852;DHT22;11592;45.460;9.240;2023-02-15T15:20:48;19.20;49.80
22852;DHT22;11592;45.460;9.240;2023-02-15T15:25:45;19.40;49.80
22852;DHT22;11592;45.460;9.240;2023-02-15T15:49:56;18.80;52.00
22852;DHT22;11592;45.460;9.240;2023-02-15T15:52:24;18.60;55.10
22852;DHT22;11592;45.460;9.240;2023-02-15T15:55:02;18.60;54.70
22852;DHT22;11592;45.460;9.240;2023-02-15T15:57:39;18.70;53.70
22852;DHT22;11592;45.460;9.240;2023-02-15T16:00:34;18.40;56.20
22852;DHT22;11592;45.460;9.240;2023-02-15T16:03:01;18.30;56.00
22852;DHT22;11592;45.460;9.240;2023-02-15T16:05:38;18.10;57.40
22852;DHT22;11592;45.460;9.240;2023-02-15T16:08:05;18.00;58.40
22852;DHT22;11592;45.460;9.240;2023-02-15T16:10:33;17.80;60.00
22852;DHT22;11592;45.460;9.240;2023-02-15T16:13:02;17.50;60.70
22852;DHT22;11592;45.460;9.240;2023-02-15T16:15:46;17.30;62.00
22852;DHT22;11592;45.460;9.240;2023-02-15T16:18:25;17.10;63.00
22852;DHT22;11592;45.460;9.240;2023-02-15T16:20:54;16.90;64.70
22852;DHT22;11592;45.460;9.240;2023-02-15T16:28:54;16.10;68.80
22852;DHT22;11592;45.460;9.240;2023-02-15T16:31:22;16.10;71.10
22852;DHT22;11592;45.460;9.240;2023-02-15T16:33:52;16.10;71.90
22852;DHT22;11592;45.460;9.240;2023-02-15T16:36:25;15.90;73.40
22852;DHT22;11592;45.460;9.240;2023-02-15T16:41:29;15.60;75.50
22852;DHT22;11592;45.460;9.240;2023-02-15T16:44:00;15.30;77.40
22852;DHT22;11592;45.460;9.240;2023-02-15T16:46:33;15.20;79.60
22852;DHT22;11592;45.460;9.240;2023-02-15T16:49:07;15.00;81.70
22852;DHT22;11592;45.460;9.240;2023-02-15T16:51:41;15.10;83.10
22852;DHT22;11592;45.460;9.240;2023-02-15T16:54:16;15.10;85.70
22852;DHT22;11592;45.460;9.240;2023-02-15T16:56:45;15.10;86.60
22852;DHT22;11592;45.460;9.240;2023-02-15T16:59:31;14.90;86.10
22852;DHT22;11592;45.460;9.240;2023-02-15T17:01:59;14.60;88.80
22852;DHT22;11592;45.460;9.240;2023-02-15T17:04:29;14.50;90.50
22852;DHT22;11592;45.460;9.240;2023-02-15T17:07:04;14.40;91.30
22852;DHT22;11592;45.460;9.240;2023-02-15T17:09:32;14.10;92.00
22852;DHT22;11592;45.460;9.240;2023-02-15T17:11:59;13.90;93.10
22852;DHT22;11592;45.460;9.240;2023-02-15T17:14:30;13.80;94.20
22852;DHT22;11592;45.460;9.240;2023-02-15T17:17:11;13.70;95.60
22852;DHT22;11592;45.460;9.240;2023-02-15T17:19:51;13.70;96.40
22852;DHT22;11592;45.460;9.240;2023-02-15T17:22:25;13.60;96.90
22852;DHT22;11592;45.460;9.240;2023-02-15T17:25:01;13.50;97.20
22852;DHT22;11592;45.460;9.240;2023-02-15T17:27:30;13.40;97.40
22852;DHT22;11592;45.460;9.240;2023-02-15T17:30:44;13.30;98.00
22852;DHT22;11592;45.460;9.240;2023-02-15T17:33:02;13.30;97.70
22852;DHT22;11592;45.460;9.240;2023-02-15T17:35:31;13.50;97.50
22852;DHT22;11592;45.460;9.240;2023-02-15T17:38:02;13.50;97.90
22852;DHT22;11592;45.460;9.240;2023-02-15T17:40:32;13.50;98.20
22852;DHT22;11592;45.460;9.240;2023-02-15T17:42:59;13.50;98.60
22852;DHT22;11592;45.460;9.240;2023-02-15T17:45:36;13.40;98.10
22852;DHT22;11592;45.460;9.240;2023-02-15T17:48:05;13.40;98.70
22852;DHT22;11592;45.460;9.240;2023-02-15T17:50:33;13.30;98.90
22852;DHT22;11592;45.460;9.240;2023-02-15T17:53:00;13.20;99.40
22852;DHT22;11592;45.460;9.240;2023-02-15T17:55:27;12.90;99.40
22852;DHT22;11592;45.460;9.240;2023-02-15T17:58:11;13.00;99.80
22852;DHT22;11592;45.460;9.240;2023-02-15T18:00:44;13.00;99.50
22852;DHT22;11592;45.460;9.240;2023-02-15T18:03:51;12.90;99.90
22852;DHT22;11592;45.460;9.240;2023-02-15T18:06:39;12.70;99.90
22852;DHT22;11592;45.460;9.240;2023-02-15T18:09:25;12.70;99.90
22852;DHT22;11592;45.460;9.240;2023-02-15T18:12:27;12.70;99.90
22852;DHT22;11592;45.460;9.240;2023-02-15T18:14:55;12.60;99.90
22852;DHT22;11592;45.460;9.240;2023-02-15T18:17:28;12.60;99.90
22852;DHT22;11592;45.460;9.240;2023-02-15T18:19:56;12.50;99.90
22852;DHT22;11592;45.460;9.240;2023-02-15T18:22:23;12.40;99.90
22852;DHT22;11592;45.460;9.240;2023-02-15T18:24:50;12.20;99.90
22852;DHT22;11592;45.460;9.240;2023-02-15T18:27:17;12.20;99.90
22852;DHT22;11592;45.460;9.240;2023-02-15T18:29:44;12.10;99.90
22852;DHT22;11592;45.460;9.240;2023-02-15T18:32:17;12.10;99.90
22852;DHT22;11592;45.460;9.240;2023-02-15T18:34:46;12.00;99.90
22852;DHT22;11592;45.460;9.240;2023-02-15T18:37:17;11.90;99.90
22852;DHT22;11592;45.460;9.240;2023-02-15T18:39:52;11.80;99.90
22852;DHT22;11592;45.460;9.240;2023-02-15T18:42:27;11.80;99.90
22852;DHT22;11592;45.460;9.240;2023-02-15T18:45:00;11.70;99.90
22852;DHT22;11592;45.460;9.240;2023-02-15T18:47:28;11.80;99.90
22852;DHT22;11592;45.460;9.240;2023-02-15T18:49:55;11.80;99.90
22852;DHT22;11592;45.460;9.240;2023-02-15T18:52:31;11.70;99.90
22852;DHT22;11592;45.460;9.240;2023-02-15T18:55:01;11.70;99.90
22852;DHT22;11592;45.460;9.240;2023-02-15T18:57:29;11.60;99.90
22852;DHT22;11592;45.460;9.240;2023-02-15T18:59:57;11.50;99.90
22852;DHT22;11592;45.460;9.240;2023-02-15T19:02:24;11.50;99.90
22852;DHT22;11592;45.460;9.240;2023-02-15T19:04:50;11.50;99.90
22852;DHT22;11592;45.460;9.240;2023-02-15T19:07:19;11.60;99.90
22852;DHT22;11592;45.460;9.240;2023-02-15T19:09:49;11.40;99.90
22852;DHT22;11592;45.460;9.240;2023-02-15T19:12:17;11.30;99.90
22852;DHT22;11592;45.460;9.240;2023-02-15T19:14:45;11.20;99.90
22852;DHT22;11592;45.460;9.240;2023-02-15T19:17:15;11.20;99.90
22852;DHT22;11592;45.460;9.240;2023-02-15T19:19:42;11.10;99.90
22852;DHT22;11592;45.460;9.240;2023-02-15T19:22:14;11.10;99.90
22852;DHT22;11592;45.460;9.240;2023-02-15T19:24:43;11.10;99.90
22852;DHT22;11592;45.460;9.240;2023-02-15T19:27:23;11.00;99.90
22852;DHT22;11592;45.460;9.240;2023-02-15T19:29:51;11.00;99.90
22852;DHT22;11592;45.460;9.240;2023-02-15T19:32:18;11.00;99.90
22852;DHT22;11592;45.460;9.240;2023-02-15T19:34:45;10.90;99.90